createdAt,value
2023-08-29T00:01:27.654Z,17.17
2023-08-29T00:03:59.477Z,17.11
2023-08-29T00:06:28.256Z,17.13
2023-08-29T00:08:56.818Z,17.71
2023-08-29T00:11:25.120Z,17.65
2023-08-29T00:13:54.692Z,17.78
2023-08-29T00:16:23.710Z,17.90
2023-08-29T00:18:52.325Z,17.68
2023-08-29T00:21:21.860Z,17.64
2023-08-29T00:23:50.812Z,17.90
2023-08-29T00:26:19.119Z,17.59
2023-08-29T00:28:48.180Z,17.90
2023-08-29T00:31:16.543Z,17.63
2023-08-29T00:33:45.331Z,17.69
2023-08-29T00:36:13.676Z,18.14
2023-08-29T00:38:43.848Z,17.44
2023-08-29T00:41:12.327Z,18.01
2023-08-29T00:43:41.079Z,17.77
2023-08-29T00:46:09.395Z,17.66
2023-08-29T00:48:38.042Z,17.64
2023-08-29T00:51:06.573Z,17.67
2023-08-29T00:53:36.423Z,17.76
2023-08-29T00:56:06.921Z,17.22
2023-08-29T00:58:36.322Z,17.48
2023-08-29T01:01:04.854Z,17.71
2023-08-29T01:03:33.606Z,17.49
2023-08-29T01:06:01.844Z,17.66
2023-08-29T01:08:30.452Z,17.55
2023-08-29T01:11:04.753Z,16.90
2023-08-29T01:13:39.300Z,17.07
2023-08-29T01:16:10.632Z,16.85
2023-08-29T01:18:40.157Z,17.51
2023-08-29T01:21:17.729Z,16.94
2023-08-29T01:23:51.489Z,17.16
2023-08-29T01:26:23.693Z,17.25
2023-08-29T01:28:52.333Z,17.94
2023-08-29T01:31:22.495Z,17.66
2023-08-29T01:33:51.440Z,17.83
2023-08-29T01:36:19.616Z,17.99
2023-08-29T01:38:48.138Z,17.80
2023-08-29T01:41:16.345Z,17.71
2023-08-29T01:43:46.406Z,17.33
2023-08-29T01:46:14.783Z,17.70
2023-08-29T01:48:43.508Z,17.51
2023-08-29T01:51:11.976Z,17.74
2023-08-29T01:53:40.689Z,17.42
2023-08-29T01:56:10.593Z,17.22
2023-08-29T01:58:39.956Z,17.18
2023-08-29T02:01:22.681Z,17.16
2023-08-29T02:03:52.394Z,17.39
2023-08-29T02:06:21.200Z,17.21
2023-08-29T02:08:49.840Z,17.23
2023-08-29T02:11:18.058Z,17.35
2023-08-29T02:13:46.547Z,17.43
2023-08-29T02:16:16.198Z,16.79
2023-08-29T02:18:44.627Z,17.42
2023-08-29T02:21:12.780Z,17.11
2023-08-29T02:23:41.385Z,17.18
2023-08-29T02:26:09.574Z,17.13
2023-08-29T02:28:39.209Z,16.65
2023-08-29T02:31:08.216Z,16.84
2023-08-29T02:33:40.448Z,16.54
2023-08-29T02:36:09.093Z,16.72
2023-08-29T02:38:37.901Z,17.25
2023-08-29T02:41:06.529Z,17.01
2023-08-29T02:43:35.041Z,17.24
2023-08-29T02:46:03.572Z,17.21
2023-08-29T02:48:32.113Z,17.12
2023-08-29T02:51:01.649Z,16.86
2023-08-29T02:53:31.115Z,17.08
2023-08-29T02:55:59.414Z,16.90
2023-08-29T02:58:28.724Z,16.81
2023-08-29T03:00:58.643Z,16.83
2023-08-29T03:03:27.812Z,16.93
2023-08-29T03:05:56.840Z,16.88
2023-08-29T03:08:27.681Z,16.36
2023-08-29T03:10:56.371Z,17.17
2023-08-29T03:13:25.048Z,17.27
2023-08-29T03:15:53.572Z,17.14
2023-08-29T03:18:22.332Z,17.24
2023-08-29T03:20:50.816Z,16.69
2023-08-29T03:23:19.447Z,16.94
2023-08-29T03:25:49.229Z,16.56
2023-08-29T03:28:18.092Z,16.65
2023-08-29T03:30:46.395Z,16.70
2023-08-29T03:33:15.005Z,16.58
2023-08-29T03:35:43.445Z,17.22
2023-08-29T03:38:12.219Z,17.31
2023-08-29T03:40:40.618Z,17.23
2023-08-29T03:43:10.651Z,17.25
2023-08-29T03:45:38.998Z,17.73
2023-08-29T03:48:19.445Z,17.59
2023-08-29T03:50:52.501Z,17.71
2023-08-29T03:53:21.734Z,17.33
2023-08-29T03:55:50.138Z,17.58
2023-08-29T03:58:20.057Z,16.99
2023-08-29T04:00:48.322Z,17.40
2023-08-29T04:03:17.298Z,17.55
2023-08-29T04:05:45.946Z,17.63
2023-08-29T04:08:14.481Z,17.14
2023-08-29T04:10:43.485Z,17.18
2023-08-29T04:13:12.446Z,17.48
2023-08-29T04:15:42.420Z,16.66
2023-08-29T04:18:11.102Z,17.22
2023-08-29T04:20:39.438Z,17.08
2023-08-29T04:23:11.777Z,17.11
2023-08-29T04:25:40.128Z,17.14
2023-08-29T04:28:11.243Z,17.09
2023-08-29T04:30:39.475Z,17.12
2023-08-29T04:33:09.672Z,16.51
2023-08-29T04:35:38.050Z,16.99
2023-08-29T04:38:07.102Z,16.83
2023-08-29T04:40:35.565Z,16.92
2023-08-29T04:43:04.208Z,16.88
2023-08-29T04:45:33.960Z,16.83
2023-08-29T04:48:02.642Z,16.71
2023-08-29T04:50:32.300Z,16.34
2023-08-29T04:53:00.901Z,16.85
2023-08-29T04:55:29.149Z,16.90
2023-08-29T04:57:58.143Z,16.64
2023-08-29T05:00:26.418Z,17.00
2023-08-29T05:02:55.056Z,17.13
2023-08-29T05:05:23.930Z,17.20
2023-08-29T05:07:54.221Z,16.86
2023-08-29T05:10:22.844Z,17.27
2023-08-29T05:12:51.591Z,17.19
2023-08-29T05:15:19.840Z,17.14
2023-08-29T05:17:48.755Z,16.62
2023-08-29T05:20:17.177Z,16.44
2023-08-29T05:22:45.996Z,16.71
2023-08-29T05:25:16.014Z,16.27
2023-08-29T05:27:44.732Z,16.80
2023-08-29T05:30:14.536Z,16.65
2023-08-29T05:32:43.253Z,16.76
2023-08-29T05:35:11.552Z,16.23
2023-08-29T05:37:40.076Z,16.10
2023-08-29T05:40:10.422Z,15.81
2023-08-29T05:42:41.367Z,16.11
2023-08-29T05:45:10.600Z,16.52
2023-08-29T05:47:39.231Z,16.72
2023-08-29T05:50:08.948Z,16.57
2023-08-29T05:52:37.477Z,17.04
2023-08-29T05:55:06.704Z,17.15
2023-08-29T05:57:35.280Z,17.25
2023-08-29T06:00:08.928Z,16.45
2023-08-29T06:02:37.550Z,16.80
2023-08-29T06:05:08.115Z,16.84
2023-08-29T06:07:36.770Z,17.26
2023-08-29T06:10:05.396Z,17.45
2023-08-29T06:12:33.960Z,17.78
2023-08-29T06:15:02.237Z,17.40
2023-08-29T06:17:32.340Z,16.86
2023-08-29T06:20:00.660Z,17.33
2023-08-29T06:22:30.486Z,17.04
2023-08-29T06:24:58.771Z,17.02
2023-08-29T06:27:27.403Z,17.48
2023-08-29T06:29:55.719Z,19.17
2023-08-29T06:32:24.337Z,20.03
2023-08-29T06:34:54.314Z,19.71
2023-08-29T06:37:22.968Z,19.76
2023-08-29T06:39:52.512Z,20.44
2023-08-29T06:42:21.077Z,20.59
2023-08-29T06:44:49.694Z,20.06
2023-08-29T06:47:18.259Z,21.28
2023-08-29T06:49:46.891Z,21.27
2023-08-29T06:52:17.254Z,20.94
2023-08-29T06:54:45.871Z,21.03
2023-08-29T06:57:14.576Z,20.59
2023-08-29T06:59:42.910Z,19.89
2023-08-29T07:02:11.666Z,20.01
2023-08-29T07:04:39.851Z,20.98
2023-08-29T07:07:08.640Z,22.74
2023-08-29T07:09:38.688Z,22.39
2023-08-29T07:12:08.242Z,22.78
2023-08-29T07:14:36.786Z,23.36
2023-08-29T07:17:10.144Z,21.89
2023-08-29T07:19:42.430Z,22.01
2023-08-29T07:22:23.537Z,21.52
2023-08-29T07:24:54.167Z,20.10
2023-08-29T07:27:22.853Z,19.97
2023-08-29T07:29:51.300Z,19.14
2023-08-29T07:32:20.138Z,18.49
2023-08-29T07:34:48.401Z,18.44
2023-08-29T07:37:17.213Z,17.96
2023-08-29T07:39:45.586Z,17.93
2023-08-29T07:42:15.727Z,15.81
2023-08-29T07:44:44.087Z,15.66
2023-08-29T07:47:15.460Z,15.34
2023-08-29T07:49:44.721Z,13.12
2023-08-29T07:52:13.403Z,12.07
2023-08-29T07:54:43.014Z,10.04
2023-08-29T07:57:12.214Z,10.41
2023-08-29T07:59:41.989Z,11.40
2023-08-29T08:02:10.585Z,12.70
2023-08-29T08:04:39.207Z,13.21
2023-08-29T08:07:08.055Z,13.01
2023-08-29T08:09:36.396Z,12.72
2023-08-29T08:12:04.974Z,12.71
2023-08-29T08:14:33.910Z,12.68
2023-08-29T08:17:03.910Z,12.05
2023-08-29T08:19:32.184Z,12.28
2023-08-29T08:22:00.952Z,12.11
2023-08-29T08:24:29.886Z,11.58
2023-08-29T08:26:58.470Z,11.66
2023-08-29T08:29:26.822Z,11.16
2023-08-29T08:31:55.523Z,11.29
2023-08-29T08:34:25.221Z,10.81
2023-08-29T08:36:55.112Z,10.89
2023-08-29T08:39:23.641Z,10.68
2023-08-29T08:41:53.815Z,10.16
2023-08-29T08:44:24.904Z,10.17
2023-08-29T08:46:54.662Z,10.23
2023-08-29T08:49:22.957Z,10.30
2023-08-29T08:51:52.881Z,9.71
2023-08-29T08:54:21.480Z,9.76
2023-08-29T08:56:50.670Z,9.24
2023-08-29T08:59:18.896Z,9.70
2023-08-29T09:01:47.849Z,9.58
2023-08-29T09:04:16.194Z,9.79
2023-08-29T09:06:44.795Z,10.43
2023-08-29T09:09:23.930Z,9.91
2023-08-29T09:11:56.990Z,9.99
2023-08-29T09:14:27.205Z,10.77
2023-08-29T09:16:56.297Z,10.72
2023-08-29T09:19:24.863Z,11.37
2023-08-29T09:21:53.922Z,11.34
2023-08-29T09:24:34.332Z,10.56
2023-08-29T09:27:07.116Z,10.79
2023-08-29T09:29:36.426Z,10.89
2023-08-29T09:32:14.099Z,10.30
2023-08-29T09:34:42.659Z,10.69
2023-08-29T09:37:13.444Z,10.26
2023-08-29T09:39:43.224Z,10.21
2023-08-29T09:42:12.851Z,10.34
2023-08-29T09:44:42.847Z,10.39
2023-08-29T09:47:12.469Z,10.73
2023-08-29T09:49:44.901Z,10.48
2023-08-29T09:52:14.937Z,10.81
2023-08-29T09:54:46.670Z,10.97
2023-08-29T09:57:16.599Z,11.39
2023-08-29T09:59:46.115Z,11.14
2023-08-29T10:02:16.127Z,10.97
2023-08-29T10:04:47.014Z,10.79
2023-08-29T10:07:17.980Z,10.89
2023-08-29T10:09:48.054Z,10.70
2023-08-29T10:12:16.834Z,10.61
2023-08-29T10:14:45.973Z,9.70
2023-08-29T10:17:25.859Z,9.26
2023-08-29T10:20:00.854Z,8.75
2023-08-29T10:22:31.018Z,8.76
2023-08-29T10:25:02.295Z,7.78
2023-08-29T10:27:30.988Z,8.20
2023-08-29T10:29:59.356Z,8.30
2023-08-29T10:32:28.620Z,7.90
2023-08-29T10:34:59.054Z,8.06
2023-08-29T10:37:28.131Z,7.97
2023-08-29T10:39:56.512Z,8.41
2023-08-29T10:42:26.590Z,8.72
2023-08-29T10:44:56.521Z,9.31
2023-08-29T10:47:28.092Z,9.53
2023-08-29T10:50:01.749Z,8.91
2023-08-29T10:52:38.822Z,8.75
2023-08-29T10:55:20.305Z,9.56
2023-08-29T10:57:51.066Z,9.20
2023-08-29T11:00:21.400Z,9.46
2023-08-29T11:02:50.343Z,9.71
2023-08-29T11:05:20.909Z,9.69
2023-08-29T11:07:49.416Z,9.80
2023-08-29T11:10:20.278Z,9.60
2023-08-29T11:13:07.678Z,9.16
2023-08-29T11:16:11.216Z,9.47
2023-08-29T11:18:39.797Z,10.55
2023-08-29T11:21:09.426Z,10.37
2023-08-29T11:23:42.059Z,10.17
2023-08-29T11:26:10.881Z,10.79
2023-08-29T11:28:46.678Z,10.54
2023-08-29T11:31:15.172Z,10.96
2023-08-29T11:33:43.961Z,11.05
2023-08-29T11:36:12.198Z,11.09
2023-08-29T11:38:40.959Z,11.09
2023-08-29T11:41:17.045Z,11.29
2023-08-29T11:44:33.412Z,11.15
2023-08-29T11:46:47.897Z,11.47
2023-08-29T11:49:17.413Z,11.40
2023-08-29T11:51:46.126Z,11.78
2023-08-29T11:54:39.651Z,10.83
2023-08-29T11:57:08.901Z,12.15
2023-08-29T11:59:41.381Z,11.54
2023-08-29T12:02:11.279Z,11.92
2023-08-29T12:04:41.654Z,11.59
2023-08-29T12:07:11.595Z,11.38
2023-08-29T12:09:42.846Z,11.56
2023-08-29T12:12:12.456Z,11.34
2023-08-29T12:14:54.841Z,10.66
2023-08-29T12:17:24.258Z,11.79
2023-08-29T12:19:52.928Z,12.04
2023-08-29T12:22:31.020Z,11.31
2023-08-29T12:24:59.849Z,12.17
2023-08-29T12:27:29.079Z,12.69
2023-08-29T12:29:59.054Z,12.36
2023-08-29T12:32:28.352Z,12.39
2023-08-29T12:34:57.828Z,12.48
2023-08-29T12:37:26.929Z,12.59
2023-08-29T12:39:55.581Z,12.65
2023-08-29T12:42:23.871Z,13.04
2023-08-29T12:44:52.810Z,12.95
2023-08-29T12:47:22.415Z,12.69
2023-08-29T12:49:51.358Z,12.93
2023-08-29T12:52:20.537Z,12.92
2023-08-29T12:54:49.139Z,13.14
2023-08-29T12:57:17.313Z,13.27
2023-08-29T12:59:46.513Z,13.11
2023-08-29T13:02:14.922Z,13.49
2023-08-29T13:04:45.095Z,13.02
2023-08-29T13:07:13.386Z,13.29
2023-08-29T13:09:42.861Z,12.97
2023-08-29T13:12:11.217Z,13.26
2023-08-29T13:14:40.461Z,12.98
2023-08-29T13:17:11.817Z,13.17
2023-08-29T13:19:41.369Z,13.19
2023-08-29T13:22:11.562Z,12.70
2023-08-29T13:24:40.156Z,12.96
2023-08-29T13:27:09.807Z,12.41
2023-08-29T13:29:38.544Z,12.65
2023-08-29T13:32:07.345Z,12.55
2023-08-29T13:34:35.878Z,12.94
2023-08-29T13:37:04.082Z,13.02
2023-08-29T13:39:34.170Z,12.45
2023-08-29T13:42:02.504Z,13.40
2023-08-29T13:44:31.229Z,13.02
2023-08-29T13:46:59.787Z,12.69
2023-08-29T13:49:28.315Z,12.58
2023-08-29T13:52:00.865Z,13.06
2023-08-29T13:54:31.946Z,12.89
2023-08-29T13:57:01.695Z,12.54
2023-08-29T13:59:30.324Z,13.21
2023-08-29T14:01:58.610Z,13.20
2023-08-29T14:04:27.635Z,13.01
2023-08-29T14:06:56.053Z,13.28
2023-08-29T14:09:24.785Z,13.02
2023-08-29T14:11:52.973Z,13.08
2023-08-29T14:14:25.245Z,12.99
2023-08-29T14:16:54.214Z,13.68
2023-08-29T14:19:23.198Z,13.05
2023-08-29T14:21:51.579Z,13.32
2023-08-29T14:24:20.053Z,13.77
2023-08-29T14:26:48.455Z,14.03
2023-08-29T14:29:17.085Z,14.07
2023-08-29T14:31:46.983Z,13.80
2023-08-29T14:34:16.174Z,14.08
2023-08-29T14:36:44.610Z,13.88
2023-08-29T14:39:13.315Z,13.83
2023-08-29T14:41:43.804Z,13.72
2023-08-29T14:44:12.359Z,14.31
2023-08-29T14:46:42.490Z,13.91
2023-08-29T14:49:12.545Z,13.40
2023-08-29T14:51:40.907Z,13.37
2023-08-29T14:54:09.622Z,13.38
2023-08-29T14:56:38.222Z,13.12
2023-08-29T14:59:06.974Z,13.05
2023-08-29T15:01:37.935Z,12.98
2023-08-29T15:04:06.675Z,12.83
2023-08-29T15:06:36.920Z,12.58
2023-08-29T15:09:07.916Z,12.95
2023-08-29T15:11:37.383Z,12.54
2023-08-29T15:14:06.758Z,12.73
2023-08-29T15:16:36.403Z,12.83
2023-08-29T15:19:05.290Z,12.92
2023-08-29T15:21:33.545Z,12.86
2023-08-29T15:24:03.962Z,12.43
2023-08-29T15:26:32.610Z,13.08
2023-08-29T15:29:01.152Z,13.34
2023-08-29T15:31:29.370Z,13.21
2023-08-29T15:33:57.972Z,13.54
2023-08-29T15:36:26.583Z,13.51
2023-08-29T15:38:55.056Z,13.54
2023-08-29T15:41:25.296Z,13.17
2023-08-29T15:43:54.177Z,13.65
2023-08-29T15:46:22.677Z,13.76
2023-08-29T15:48:51.440Z,13.82
2023-08-29T15:51:20.894Z,13.71
2023-08-29T15:53:49.572Z,14.18
2023-08-29T15:56:17.978Z,14.06
2023-08-29T15:58:48.690Z,13.88
2023-08-29T16:01:17.512Z,13.91
2023-08-29T16:03:46.298Z,14.46
2023-08-29T16:06:15.811Z,14.29
2023-08-29T16:08:44.846Z,14.59
2023-08-29T16:11:13.680Z,14.40
2023-08-29T16:13:42.399Z,14.04
2023-08-29T16:16:12.059Z,13.90
2023-08-29T16:18:40.822Z,13.90
2023-08-29T16:21:09.102Z,14.00
2023-08-29T16:23:37.816Z,13.82
2023-08-29T16:26:14.270Z,13.34
2023-08-29T16:28:43.379Z,13.96
2023-08-29T16:31:13.182Z,13.73
2023-08-29T16:33:41.847Z,13.93
2023-08-29T16:36:10.139Z,14.14
2023-08-29T16:38:38.678Z,15.04
2023-08-29T16:41:06.997Z,14.95
2023-08-29T16:43:35.900Z,14.58
2023-08-29T16:46:04.449Z,15.00
2023-08-29T16:48:34.627Z,14.39
2023-08-29T16:51:02.919Z,15.14
2023-08-29T16:53:31.677Z,15.06
2023-08-29T16:56:01.401Z,14.66
2023-08-29T16:58:29.892Z,14.65
2023-08-29T17:00:58.288Z,14.37
2023-08-29T17:03:27.054Z,14.93
2023-08-29T17:05:56.888Z,14.55
2023-08-29T17:08:26.150Z,14.58
2023-08-29T17:10:54.432Z,15.03
2023-08-29T17:13:23.064Z,15.20
2023-08-29T17:15:51.288Z,15.13
2023-08-29T17:18:20.091Z,14.72
2023-08-29T17:20:48.651Z,14.86
2023-08-29T17:23:18.903Z,14.71
2023-08-29T17:25:47.268Z,15.05
2023-08-29T17:28:16.388Z,14.98
2023-08-29T17:30:44.772Z,14.79
2023-08-29T17:33:13.368Z,15.26
2023-08-29T17:35:41.731Z,15.10
2023-08-29T17:38:10.507Z,15.02
2023-08-29T17:40:40.589Z,14.41
2023-08-29T17:43:09.502Z,14.67
2023-08-29T17:45:45.364Z,14.45
2023-08-29T17:48:13.996Z,14.99
2023-08-29T17:50:42.203Z,14.99
2023-08-29T17:53:10.707Z,15.05
2023-08-29T17:55:40.347Z,14.53
2023-08-29T17:58:13.604Z,15.23
2023-08-29T18:00:41.935Z,15.13
2023-08-29T18:03:10.506Z,15.10
2023-08-29T18:05:47.456Z,14.52
2023-08-29T18:08:16.374Z,15.50
2023-08-29T18:10:46.760Z,14.44
2023-08-29T18:13:17.948Z,14.98
2023-08-29T18:15:46.900Z,14.83
2023-08-29T18:18:20.503Z,14.70
2023-08-29T18:20:49.203Z,15.29
2023-08-29T18:23:17.761Z,15.52
2023-08-29T18:25:47.665Z,14.66
2023-08-29T18:28:16.361Z,15.13
2023-08-29T18:30:44.684Z,15.12
2023-08-29T18:33:13.318Z,15.10
2023-08-29T18:35:44.627Z,14.85
2023-08-29T18:38:13.787Z,15.05
2023-08-29T18:40:42.088Z,15.32
2023-08-29T18:43:14.020Z,14.48
2023-08-29T18:45:42.612Z,15.50
2023-08-29T18:48:11.469Z,15.29
2023-08-29T18:50:40.934Z,14.99
2023-08-29T18:53:09.775Z,15.10
2023-08-29T18:55:39.776Z,14.71
2023-08-29T18:58:08.609Z,15.29
2023-08-29T19:00:39.050Z,15.10
2023-08-29T19:09:36.424Z,29.48
2023-08-29T19:12:24.930Z,26.90
2023-08-29T19:14:53.856Z,26.75
2023-08-29T19:17:22.564Z,26.51
2023-08-29T19:19:51.100Z,25.60
2023-08-29T19:22:19.391Z,25.38
2023-08-29T19:24:48.314Z,25.30
2023-08-29T19:27:23.726Z,25.22
2023-08-29T19:29:56.818Z,24.97
2023-08-29T19:32:26.452Z,25.18
2023-08-29T19:34:55.342Z,24.92
2023-08-29T19:37:23.616Z,24.73
2023-08-29T19:39:52.269Z,24.38
2023-08-29T19:42:20.681Z,23.98
2023-08-29T19:44:49.254Z,23.77
2023-08-29T19:47:20.215Z,23.72
2023-08-29T19:49:48.734Z,22.59
2023-08-29T19:52:17.033Z,22.95
2023-08-29T19:54:45.786Z,23.10
2023-08-29T19:57:15.476Z,23.22
2023-08-29T19:59:44.082Z,23.18
2023-08-29T20:02:12.977Z,23.11
2023-08-29T20:04:43.980Z,22.54
2023-08-29T20:07:12.435Z,23.52
2023-08-29T20:09:41.360Z,23.15
2023-08-29T20:12:09.837Z,23.36
2023-08-29T20:14:38.511Z,22.78
2023-08-29T20:17:06.852Z,22.68
2023-08-29T20:19:35.802Z,22.69
2023-08-29T20:22:05.883Z,22.06
2023-08-29T20:24:36.245Z,22.03
2023-08-29T20:27:04.739Z,22.06
2023-08-29T20:29:33.477Z,21.94
2023-08-29T20:32:01.889Z,22.15
2023-08-29T20:34:30.929Z,22.46
2023-08-29T20:36:59.258Z,21.98
2023-08-29T20:39:29.506Z,21.54
2023-08-29T20:41:57.775Z,22.30
2023-08-29T20:44:26.498Z,22.55
2023-08-29T20:46:54.741Z,22.65
2023-08-29T20:49:23.381Z,23.29
2023-08-29T20:51:52.920Z,22.71
2023-08-29T20:54:22.109Z,22.91
2023-08-29T20:56:51.730Z,22.33
2023-08-29T20:59:20.328Z,22.87
2023-08-29T21:01:48.626Z,23.50
2023-08-29T21:04:17.361Z,23.74
2023-08-29T21:06:45.541Z,23.61
2023-08-29T21:09:14.346Z,23.47
2023-08-29T21:11:42.630Z,23.93
2023-08-29T21:14:12.644Z,23.31
2023-08-29T21:16:41.004Z,23.55
2023-08-29T21:19:10.233Z,23.36
2023-08-29T21:21:38.492Z,23.24
2023-08-29T21:24:08.086Z,22.92
2023-08-29T21:26:36.380Z,23.00
2023-08-29T21:29:05.814Z,23.01
2023-08-29T21:31:35.642Z,22.75
2023-08-29T21:34:04.609Z,22.83
2023-08-29T21:36:35.803Z,22.94
2023-08-29T21:39:04.869Z,22.43
2023-08-29T21:41:33.335Z,22.27
2023-08-29T21:44:01.977Z,22.21
2023-08-29T21:46:30.575Z,22.62
2023-08-29T21:49:00.648Z,21.71
2023-08-29T21:51:30.584Z,21.85
2023-08-29T21:53:59.192Z,22.07
2023-08-29T21:56:27.523Z,21.76
2023-08-29T21:58:56.231Z,21.52
2023-08-29T22:01:24.551Z,21.54
2023-08-29T22:03:53.223Z,21.58
2023-08-29T22:06:23.109Z,20.96
2023-08-29T22:08:51.722Z,21.64
2023-08-29T22:11:20.156Z,21.38
2023-08-29T22:13:48.898Z,21.24
2023-08-29T22:16:17.242Z,21.44
2023-08-29T22:18:46.156Z,21.46
2023-08-29T22:21:14.654Z,21.47
2023-08-29T22:23:47.617Z,20.70
2023-08-29T22:26:18.634Z,21.22
2023-08-29T22:28:47.110Z,21.20
2023-08-29T22:31:15.476Z,21.15
2023-08-29T22:33:45.452Z,21.19
2023-08-29T22:36:13.849Z,21.09
2023-08-29T22:38:43.342Z,21.07
2023-08-29T22:41:24.836Z,20.77
2023-08-29T22:44:01.555Z,21.42
2023-08-29T22:46:29.850Z,21.36
2023-08-29T22:48:59.006Z,21.09
2023-08-29T22:51:27.217Z,21.37
2023-08-29T22:53:58.822Z,21.14
2023-08-29T22:56:29.031Z,21.17
2023-08-29T22:58:57.643Z,21.33
2023-08-29T23:01:26.042Z,20.99
2023-08-29T23:03:54.834Z,21.24
2023-08-29T23:06:23.289Z,20.55
2023-08-29T23:08:52.229Z,20.56
2023-08-29T23:11:20.897Z,20.69
2023-08-29T23:13:51.453Z,20.31
2023-08-29T23:16:19.773Z,20.81
2023-08-29T23:18:48.462Z,20.70
2023-08-29T23:21:16.762Z,20.85
2023-08-29T23:23:46.369Z,20.59
2023-08-29T23:26:14.576Z,20.97
2023-08-29T23:28:43.033Z,20.62
2023-08-29T23:31:12.917Z,20.25
2023-08-29T23:33:51.178Z,19.73
2023-08-29T23:36:19.473Z,21.01
2023-08-29T23:38:49.750Z,20.64
2023-08-29T23:41:18.201Z,20.82
2023-08-29T23:43:46.781Z,20.90
2023-08-29T23:46:16.668Z,20.60
2023-08-29T23:48:45.250Z,21.03
2023-08-29T23:51:13.547Z,21.08
2023-08-29T23:53:42.228Z,21.19
2023-08-29T23:56:10.434Z,21.25
2023-08-29T23:58:39.014Z,21.09
